PWSweather.com
Personal Weather Stations
Station Observations
KMAMEDFI2
Medfield, MA 02052

Medfield, MA 02052

Lat: 42.1900822, Lon: -71.3296889

Elevation: 138

Station Type: Rainwise WS MK-III

http://www.medfieldweather.com

High Low Average
Temperature 52.0°F11.1°C 31.6°F-0.2°C 44.5°F6.9°C
Dew Point 48.0°F8.9°C 30.4°F-0.9°C 41.9°F5.5°C
Winds 5.8 mph 9.3 kmh Calm Calm 1.0 mph SW1.6 kmh SW
Wind Gusts 12.7 mph20.4 kmh -- 2.0 mph3.2 kmh
Humidity 97% 71% 91%
Pressure 30.26 in1024.7 mb 30.18 in1022.0 mb -
Precipitation 0.05 in1.3 mm - -
Hour Temp Dew Point Humidity Winds Wind Gusts Pressure Precip Precip Rate Daily Precip Total
12:00 AM 51.3°F10.7°C 43.0°F6.1°C 73% 3.5 mph W5.6 kmh W 2.3 mph3.7 kmh 30.20 in1022.7 mb - 0.00 in0.0 mm 0.00 in0.0 mm
12:10 AM 51.7°F10.9°C 43.0°F6.1°C 72% 4.6 mph SW7.4 kmh SW 9.2 mph14.8 kmh 30.20 in1022.7 mb - 0.00 in0.0 mm 0.00 in0.0 mm
12:20 AM 51.8°F11.0°C 43.4°F6.3°C 73% 3.5 mph S5.6 kmh S 3.5 mph5.6 kmh 30.20 in1022.7 mb - 0.00 in0.0 mm 0.00 in0.0 mm
12:30 AM 51.8°F11.0°C 43.8°F6.6°C 74% 3.5 mph S5.6 kmh S 5.8 mph9.3 kmh 30.19 in1022.4 mb - 0.00 in0.0 mm 0.00 in0.0 mm
12:40 AM 52.0°F11.1°C 44.0°F6.7°C 74% 5.8 mph SW9.3 kmh SW 12.7 mph20.4 kmh 30.19 in1022.4 mb - 0.00 in0.0 mm 0.00 in0.0 mm
12:50 AM 51.9°F11.1°C 43.9°F6.6°C 74% 5.8 mph WSW9.3 kmh WSW 5.8 mph9.3 kmh 30.19 in1022.4 mb - 0.00 in0.0 mm 0.00 in0.0 mm
01:00 AM 51.8°F11.0°C 44.2°F6.8°C 75% 2.3 mph S3.7 kmh S 5.8 mph9.3 kmh 30.19 in1022.4 mb - 0.00 in0.0 mm 0.00 in0.0 mm
01:10 AM 51.7°F10.9°C 44.4°F6.9°C 76% 4.6 mph WSW7.4 kmh WSW 9.2 mph14.8 kmh 30.18 in1022.0 mb - 0.00 in0.0 mm 0.00 in0.0 mm
01:20 AM 51.8°F11.0°C 44.5°F6.9°C 76% 3.5 mph S5.6 kmh S 8.1 mph13.0 kmh 30.18 in1022.0 mb - 0.00 in0.0 mm 0.00 in0.0 mm
01:30 AM 51.8°F11.0°C 44.5°F6.9°C 76% 1.2 mph S1.9 kmh S 2.3 mph3.7 kmh 30.18 in1022.0 mb - 0.00 in0.0 mm 0.00 in0.0 mm
01:40 AM 51.8°F11.0°C 44.5°F6.9°C 76% 3.5 mph WSW5.6 kmh WSW 5.8 mph9.3 kmh 30.18 in1022.0 mb - 0.00 in0.0 mm 0.00 in0.0 mm
01:50 AM 51.6°F10.9°C 44.6°F7.0°C 77% 1.2 mph SW1.9 kmh SW 8.1 mph13.0 kmh 30.19 in1022.4 mb - 0.00 in0.0 mm 0.00 in0.0 mm
02:00 AM 51.6°F10.9°C 44.9°F7.2°C 78% 3.5 mph SSE5.6 kmh SSE 5.8 mph9.3 kmh 30.19 in1022.4 mb - 0.00 in0.0 mm 0.00 in0.0 mm
02:10 AM 51.6°F10.9°C 45.0°F7.2°C 78% 4.6 mph WSW7.4 kmh WSW 8.1 mph13.0 kmh 30.18 in1022.0 mb - 0.00 in0.0 mm 0.00 in0.0 mm
02:20 AM 51.4°F10.8°C 45.1°F7.3°C 79% 2.3 mph S3.7 kmh S 3.5 mph5.6 kmh 30.18 in1022.0 mb - 0.00 in0.0 mm 0.00 in0.0 mm
02:30 AM 51.2°F10.7°C 45.5°F7.5°C 81% 3.5 mph WSW5.6 kmh WSW 9.2 mph14.8 kmh 30.18 in1022.0 mb - 0.00 in0.0 mm 0.00 in0.0 mm
02:40 AM 50.3°F10.2°C 46.6°F8.1°C 87% 3.5 mph W5.6 kmh W 5.8 mph9.3 kmh 30.19 in1022.4 mb - 0.00 in0.0 mm 0.00 in0.0 mm
02:50 AM 49.8°F9.9°C 47.0°F8.3°C 90% 2.3 mph S3.7 kmh S 11.5 mph18.5 kmh 30.19 in1022.4 mb - 0.00 in0.0 mm 0.00 in0.0 mm
03:00 AM 49.5°F9.7°C 47.0°F8.3°C 91% 5.8 mph W9.3 kmh W 9.2 mph14.8 kmh 30.18 in1022.0 mb - 0.00 in0.0 mm 0.00 in0.0 mm
03:10 AM 49.4°F9.7°C 47.2°F8.4°C 92% 3.5 mph NE5.6 kmh NE 5.8 mph9.3 kmh 30.18 in1022.0 mb - 0.00 in0.0 mm 0.00 in0.0 mm
03:20 AM 49.2°F9.6°C 47.2°F8.4°C 93% 2.3 mph NNE3.7 kmh NNE 2.3 mph3.7 kmh 30.18 in1022.0 mb - 0.00 in0.0 mm 0.00 in0.0 mm
03:30 AM 48.7°F9.3°C 47.6°F8.7°C 96% 2.3 mph S3.7 kmh S 2.3 mph3.7 kmh 30.18 in1022.0 mb - 0.00 in0.0 mm 0.00 in0.0 mm
03:40 AM 48.5°F9.2°C 47.7°F8.7°C 97% 3.5 mph S5.6 kmh S 3.5 mph5.6 kmh 30.18 in1022.0 mb - 0.00 in0.0 mm 0.00 in0.0 mm
03:50 AM 48.4°F9.1°C 47.6°F8.7°C 97% 2.3 mph SW3.7 kmh SW 6.9 mph11.1 kmh 30.18 in1022.0 mb - 0.00 in0.0 mm 0.00 in0.0 mm
04:00 AM 48.1°F8.9°C 47.3°F8.5°C 97% 4.6 mph SW7.4 kmh SW 8.1 mph13.0 kmh 30.18 in1022.0 mb - 0.00 in0.0 mm 0.00 in0.0 mm
04:10 AM 47.9°F8.8°C 47.1°F8.4°C 97% 3.5 mph WSW5.6 kmh WSW 5.8 mph9.3 kmh 30.18 in1022.0 mb - 0.00 in0.0 mm 0.00 in0.0 mm
04:20 AM 47.8°F8.8°C 47.0°F8.3°C 97% 3.5 mph WSW5.6 kmh WSW 3.5 mph5.6 kmh 30.18 in1022.0 mb - 0.01 in0.3 mm 0.01 in0.3 mm
04:30 AM 47.6°F8.7°C 46.8°F8.2°C 97% 3.5 mph S5.6 kmh S 2.3 mph3.7 kmh 30.18 in1022.0 mb - 0.00 in0.0 mm 0.01 in0.3 mm
04:40 AM 47.3°F8.5°C 46.5°F8.1°C 97% 3.5 mph WSW5.6 kmh WSW 3.5 mph5.6 kmh 30.18 in1022.0 mb - 0.00 in0.0 mm 0.01 in0.3 mm
04:50 AM 47.2°F8.4°C 46.4°F8.0°C 97% 3.5 mph SW5.6 kmh SW 5.8 mph9.3 kmh 30.18 in1022.0 mb - 0.01 in0.3 mm 0.02 in0.5 mm
05:00 AM 47.0°F8.3°C 46.2°F7.9°C 97% 2.3 mph WSW3.7 kmh WSW 2.3 mph3.7 kmh 30.18 in1022.0 mb - 0.01 in0.3 mm 0.03 in0.8 mm
05:10 AM 46.9°F8.3°C 46.1°F7.8°C 97% 3.5 mph WNW5.6 kmh WNW 2.3 mph3.7 kmh 30.18 in1022.0 mb - 0.00 in0.0 mm 0.03 in0.8 mm
05:20 AM 46.9°F8.3°C 46.1°F7.8°C 97% Calm Calm -- 30.19 in1022.4 mb - 0.01 in0.3 mm 0.04 in1.0 mm
05:30 AM 46.7°F8.2°C 45.9°F7.7°C 97% 2.3 mph WSW3.7 kmh WSW 2.3 mph3.7 kmh 30.19 in1022.4 mb - 0.00 in0.0 mm 0.04 in1.0 mm
05:40 AM 46.5°F8.1°C 45.7°F7.6°C 97% Calm Calm 1.2 mph1.9 kmh 30.20 in1022.7 mb - 0.01 in0.3 mm 0.05 in1.3 mm
05:50 AM 46.4°F8.0°C 45.6°F7.6°C 97% Calm Calm -- 30.20 in1022.7 mb - 0.00 in0.0 mm 0.05 in1.3 mm
06:00 AM 46.2°F7.9°C 45.4°F7.4°C 97% 1.2 mph SE1.9 kmh SE 2.3 mph3.7 kmh 30.20 in1022.7 mb - 0.00 in0.0 mm 0.05 in1.3 mm
06:10 AM 46.2°F7.9°C 45.4°F7.4°C 97% Calm Calm -- 30.20 in1022.7 mb - 0.00 in0.0 mm 0.05 in1.3 mm
06:20 AM 46.0°F7.8°C 45.2°F7.3°C 97% 2.3 mph SW3.7 kmh SW 2.3 mph3.7 kmh 30.20 in1022.7 mb - 0.00 in0.0 mm 0.05 in1.3 mm
06:30 AM 45.9°F7.7°C 45.1°F7.3°C 97% 1.2 mph SW1.9 kmh SW 2.3 mph3.7 kmh 30.21 in1023.0 mb - 0.00 in0.0 mm 0.05 in1.3 mm
06:40 AM 45.7°F7.6°C 44.9°F7.2°C 97% 1.2 mph W1.9 kmh W 2.3 mph3.7 kmh 30.22 in1023.4 mb - 0.00 in0.0 mm 0.05 in1.3 mm
06:50 AM 45.5°F7.5°C 44.7°F7.1°C 97% Calm Calm 1.2 mph1.9 kmh 30.22 in1023.4 mb - 0.00 in0.0 mm 0.05 in1.3 mm
07:00 AM 45.5°F7.5°C 44.7°F7.1°C 97% Calm Calm -- 30.22 in1023.4 mb - 0.00 in0.0 mm 0.05 in1.3 mm
07:10 AM 45.4°F7.4°C 44.6°F7.0°C 97% Calm Calm -- 30.22 in1023.4 mb - 0.00 in0.0 mm 0.05 in1.3 mm
07:20 AM 44.9°F7.2°C 43.8°F6.6°C 96% Calm Calm -- 30.22 in1023.4 mb - 0.00 in0.0 mm 0.05 in1.3 mm
07:30 AM 44.7°F7.1°C 43.6°F6.4°C 96% Calm Calm -- 30.22 in1023.4 mb - 0.00 in0.0 mm 0.05 in1.3 mm
07:40 AM 44.8°F7.1°C 43.7°F6.5°C 96% Calm Calm -- 30.22 in1023.4 mb - 0.00 in0.0 mm 0.05 in1.3 mm
07:50 AM 44.7°F7.1°C 43.6°F6.4°C 96% Calm Calm -- 30.22 in1023.4 mb - 0.00 in0.0 mm 0.05 in1.3 mm
08:00 AM 44.8°F7.1°C 43.7°F6.5°C 96% Calm Calm -- 30.23 in1023.7 mb - 0.00 in0.0 mm 0.05 in1.3 mm
08:10 AM 44.9°F7.2°C 43.8°F6.6°C 96% Calm Calm -- 30.23 in1023.7 mb - 0.00 in0.0 mm 0.05 in1.3 mm
08:20 AM 45.1°F7.3°C 44.3°F6.8°C 97% Calm Calm -- 30.23 in1023.7 mb - 0.00 in0.0 mm 0.05 in1.3 mm
08:30 AM 45.0°F7.2°C 44.2°F6.8°C 97% Calm Calm -- 30.24 in1024.0 mb - 0.00 in0.0 mm 0.05 in1.3 mm
08:40 AM 45.3°F7.4°C 44.5°F6.9°C 97% 1.2 mph W1.9 kmh W 2.3 mph3.7 kmh 30.24 in1024.0 mb - 0.00 in0.0 mm 0.05 in1.3 mm
08:50 AM 45.6°F7.6°C 44.8°F7.1°C 97% Calm Calm -- 30.24 in1024.0 mb - 0.00 in0.0 mm 0.05 in1.3 mm
09:00 AM 45.8°F7.7°C 45.0°F7.2°C 97% Calm Calm -- 30.25 in1024.4 mb - 0.00 in0.0 mm 0.05 in1.3 mm
09:10 AM 45.9°F7.7°C 45.1°F7.3°C 97% Calm Calm 1.2 mph1.9 kmh 30.25 in1024.4 mb - 0.00 in0.0 mm 0.05 in1.3 mm
09:20 AM 46.0°F7.8°C 45.2°F7.3°C 97% Calm Calm -- 30.25 in1024.4 mb - 0.00 in0.0 mm 0.05 in1.3 mm
09:30 AM 46.1°F7.8°C 45.3°F7.4°C 97% Calm Calm -- 30.26 in1024.7 mb - 0.00 in0.0 mm 0.05 in1.3 mm
09:40 AM 46.2°F7.9°C 45.4°F7.4°C 97% Calm Calm -- 30.25 in1024.4 mb - 0.00 in0.0 mm 0.05 in1.3 mm
09:50 AM 46.3°F7.9°C 45.5°F7.5°C 97% Calm Calm 1.2 mph1.9 kmh 30.25 in1024.4 mb - 0.00 in0.0 mm 0.05 in1.3 mm
10:00 AM 46.5°F8.1°C 45.7°F7.6°C 97% Calm Calm -- 30.25 in1024.4 mb - 0.00 in0.0 mm 0.05 in1.3 mm
10:10 AM 46.7°F8.2°C 45.9°F7.7°C 97% Calm Calm -- 30.26 in1024.7 mb - 0.00 in0.0 mm 0.05 in1.3 mm
10:20 AM 46.9°F8.3°C 46.1°F7.8°C 97% Calm Calm -- 30.25 in1024.4 mb - 0.00 in0.0 mm 0.05 in1.3 mm
10:30 AM 47.0°F8.3°C 46.2°F7.9°C 97% Calm Calm -- 30.25 in1024.4 mb - 0.00 in0.0 mm 0.05 in1.3 mm
10:40 AM 47.3°F8.5°C 46.5°F8.1°C 97% Calm Calm -- 30.25 in1024.4 mb - 0.00 in0.0 mm 0.05 in1.3 mm
10:50 AM 47.5°F8.6°C 46.7°F8.2°C 97% Calm Calm -- 30.25 in1024.4 mb - 0.00 in0.0 mm 0.05 in1.3 mm
11:00 AM 47.6°F8.7°C 46.8°F8.2°C 97% 2.3 mph WSW3.7 kmh WSW 2.3 mph3.7 kmh 30.25 in1024.4 mb - 0.00 in0.0 mm 0.05 in1.3 mm
11:10 AM 47.6°F8.7°C 46.8°F8.2°C 97% Calm Calm -- 30.24 in1024.0 mb - 0.00 in0.0 mm 0.05 in1.3 mm
11:20 AM 47.5°F8.6°C 46.7°F8.2°C 97% Calm Calm -- 30.24 in1024.0 mb - 0.00 in0.0 mm 0.05 in1.3 mm
11:30 AM 47.5°F8.6°C 46.7°F8.2°C 97% Calm Calm -- 30.24 in1024.0 mb - 0.00 in0.0 mm 0.05 in1.3 mm
11:40 AM 47.5°F8.6°C 46.7°F8.2°C 97% 1.2 mph SE1.9 kmh SE 1.2 mph1.9 kmh 30.24 in1024.0 mb - 0.00 in0.0 mm 0.05 in1.3 mm
11:50 AM 47.5°F8.6°C 46.7°F8.2°C 97% Calm Calm -- 30.23 in1023.7 mb - 0.00 in0.0 mm 0.05 in1.3 mm
12:00 PM 47.7°F8.7°C 46.9°F8.3°C 97% 2.3 mph SE3.7 kmh SE 2.3 mph3.7 kmh 30.23 in1023.7 mb - 0.00 in0.0 mm 0.05 in1.3 mm
12:10 PM 47.9°F8.8°C 47.1°F8.4°C 97% 2.3 mph W3.7 kmh W 2.3 mph3.7 kmh 30.23 in1023.7 mb - 0.00 in0.0 mm 0.05 in1.3 mm
12:20 PM 48.5°F9.2°C 47.7°F8.7°C 97% 1.2 mph NW1.9 kmh NW 5.8 mph9.3 kmh 30.22 in1023.4 mb - 0.00 in0.0 mm 0.05 in1.3 mm
12:30 PM 48.8°F9.3°C 48.0°F8.9°C 97% Calm Calm 2.3 mph3.7 kmh 30.23 in1023.7 mb - 0.00 in0.0 mm 0.05 in1.3 mm
12:40 PM 48.8°F9.3°C 48.0°F8.9°C 97% 3.5 mph WSW5.6 kmh WSW 5.8 mph9.3 kmh 30.22 in1023.4 mb - 0.00 in0.0 mm 0.05 in1.3 mm
12:50 PM 48.9°F9.4°C 48.0°F8.9°C 97% 2.3 mph WSW3.7 kmh WSW 2.3 mph3.7 kmh 30.22 in1023.4 mb - 0.00 in0.0 mm 0.05 in1.3 mm
01:00 PM 49.0°F9.4°C 47.7°F8.7°C 95% 2.3 mph WSW3.7 kmh WSW 2.3 mph3.7 kmh 30.22 in1023.4 mb - 0.00 in0.0 mm 0.05 in1.3 mm
01:10 PM 49.2°F9.6°C 47.0°F8.3°C 92% 2.3 mph W3.7 kmh W 2.3 mph3.7 kmh 30.22 in1023.4 mb - 0.00 in0.0 mm 0.05 in1.3 mm
01:20 PM 49.1°F9.5°C 45.7°F7.6°C 88% 2.3 mph WSW3.7 kmh WSW 3.5 mph5.6 kmh 30.22 in1023.4 mb - 0.00 in0.0 mm 0.05 in1.3 mm
01:30 PM 49.2°F9.6°C 44.9°F7.2°C 85% 2.3 mph SW3.7 kmh SW 2.3 mph3.7 kmh 30.22 in1023.4 mb - 0.00 in0.0 mm 0.05 in1.3 mm
01:40 PM 49.3°F9.6°C 44.1°F6.7°C 82% 2.3 mph WNW3.7 kmh WNW 3.5 mph5.6 kmh 30.21 in1023.0 mb - 0.00 in0.0 mm 0.05 in1.3 mm
01:50 PM 49.4°F9.7°C 43.5°F6.4°C 80% 2.3 mph W3.7 kmh W 2.3 mph3.7 kmh 30.21 in1023.0 mb - 0.00 in0.0 mm 0.05 in1.3 mm
02:00 PM 49.2°F9.6°C 42.6°F5.9°C 78% 2.3 mph WSW3.7 kmh WSW 2.3 mph3.7 kmh 30.21 in1023.0 mb - 0.00 in0.0 mm 0.05 in1.3 mm
02:10 PM 49.0°F9.4°C 42.4°F5.8°C 78% 2.3 mph WSW3.7 kmh WSW 2.3 mph3.7 kmh 30.21 in1023.0 mb - 0.00 in0.0 mm 0.05 in1.3 mm
02:20 PM 48.7°F9.3°C 41.2°F5.1°C 75% 2.3 mph W3.7 kmh W 2.3 mph3.7 kmh 30.21 in1023.0 mb - 0.00 in0.0 mm 0.05 in1.3 mm
02:30 PM 48.5°F9.2°C 40.2°F4.6°C 73% 2.3 mph WSW3.7 kmh WSW 2.3 mph3.7 kmh 30.22 in1023.4 mb - 0.00 in0.0 mm 0.05 in1.3 mm
02:40 PM 48.3°F9.1°C 39.7°F4.3°C 72% Calm Calm -- 30.22 in1023.4 mb - 0.00 in0.0 mm 0.05 in1.3 mm
02:50 PM 48.1°F8.9°C 39.2°F4.0°C 71% 3.5 mph W5.6 kmh W 3.5 mph5.6 kmh 30.22 in1023.4 mb - 0.00 in0.0 mm 0.05 in1.3 mm
03:00 PM 48.0°F8.9°C 39.4°F4.1°C 72% 2.3 mph W3.7 kmh W 2.3 mph3.7 kmh 30.22 in1023.4 mb - 0.00 in0.0 mm 0.05 in1.3 mm
03:10 PM 47.7°F8.7°C 39.1°F3.9°C 72% 2.3 mph W3.7 kmh W 2.3 mph3.7 kmh 30.21 in1023.0 mb - 0.00 in0.0 mm 0.05 in1.3 mm
03:20 PM 47.4°F8.6°C 39.6°F4.2°C 74% 1.2 mph SSE1.9 kmh SSE 2.3 mph3.7 kmh 30.22 in1023.4 mb - 0.00 in0.0 mm 0.05 in1.3 mm
03:30 PM 47.1°F8.4°C 39.6°F4.2°C 75% 1.2 mph WNW1.9 kmh WNW 2.3 mph3.7 kmh 30.22 in1023.4 mb - 0.00 in0.0 mm 0.05 in1.3 mm
03:40 PM 46.7°F8.2°C 39.5°F4.2°C 76% 1.2 mph WSW1.9 kmh WSW 2.3 mph3.7 kmh 30.21 in1023.0 mb - 0.00 in0.0 mm 0.05 in1.3 mm
03:50 PM 46.1°F7.8°C 39.3°F4.1°C 77% 2.3 mph W3.7 kmh W 2.3 mph3.7 kmh 30.21 in1023.0 mb - 0.00 in0.0 mm 0.05 in1.3 mm
04:00 PM 45.8°F7.7°C 39.3°F4.1°C 78% 2.3 mph W3.7 kmh W 2.3 mph3.7 kmh 30.21 in1023.0 mb - 0.00 in0.0 mm 0.05 in1.3 mm
04:10 PM 45.1°F7.3°C 39.6°F4.2°C 81% Calm Calm -- 30.21 in1023.0 mb - 0.00 in0.0 mm 0.05 in1.3 mm
04:20 PM 44.4°F6.9°C 39.8°F4.3°C 84% Calm Calm -- 30.22 in1023.4 mb - 0.00 in0.0 mm 0.05 in1.3 mm
04:30 PM 43.6°F6.4°C 39.4°F4.1°C 85% Calm Calm -- 30.22 in1023.4 mb - 0.00 in0.0 mm 0.05 in1.3 mm
04:40 PM 43.2°F6.2°C 39.9°F4.4°C 88% Calm Calm -- 30.22 in1023.4 mb - 0.00 in0.0 mm 0.05 in1.3 mm
04:50 PM 42.8°F6.0°C 39.2°F4.0°C 87% Calm Calm -- 30.21 in1023.0 mb - 0.00 in0.0 mm 0.05 in1.3 mm
05:00 PM 42.2°F5.7°C 39.2°F4.0°C 89% Calm Calm -- 30.21 in1023.0 mb - 0.00 in0.0 mm 0.05 in1.3 mm
05:10 PM 41.5°F5.3°C 39.1°F3.9°C 91% Calm Calm -- 30.21 in1023.0 mb - 0.00 in0.0 mm 0.05 in1.3 mm
05:20 PM 41.5°F5.3°C 38.8°F3.8°C 90% 1.2 mph WSW1.9 kmh WSW 2.3 mph3.7 kmh 30.22 in1023.4 mb - 0.00 in0.0 mm 0.05 in1.3 mm
05:30 PM 41.3°F5.2°C 38.6°F3.7°C 90% 1.2 mph WSW1.9 kmh WSW 2.3 mph3.7 kmh 30.22 in1023.4 mb - 0.00 in0.0 mm 0.05 in1.3 mm
05:40 PM 40.9°F4.9°C 38.7°F3.7°C 92% Calm Calm -- 30.22 in1023.4 mb - 0.00 in0.0 mm 0.05 in1.3 mm
05:50 PM 40.4°F4.7°C 38.8°F3.8°C 94% Calm Calm -- 30.22 in1023.4 mb - 0.00 in0.0 mm 0.05 in1.3 mm
06:00 PM 40.1°F4.5°C 38.8°F3.8°C 95% Calm Calm -- 30.23 in1023.7 mb - 0.00 in0.0 mm 0.05 in1.3 mm
06:10 PM 39.9°F4.4°C 38.5°F3.6°C 95% Calm Calm -- 30.23 in1023.7 mb - 0.00 in0.0 mm 0.05 in1.3 mm
06:20 PM 39.5°F4.2°C 38.5°F3.6°C 96% Calm Calm -- 30.22 in1023.4 mb - 0.00 in0.0 mm 0.05 in1.3 mm
06:30 PM 39.4°F4.1°C 38.3°F3.5°C 96% 1.2 mph WSW1.9 kmh WSW 2.3 mph3.7 kmh 30.22 in1023.4 mb - 0.00 in0.0 mm 0.05 in1.3 mm
06:40 PM 39.1°F3.9°C 38.1°F3.4°C 96% 2.3 mph WSW3.7 kmh WSW 2.3 mph3.7 kmh 30.22 in1023.4 mb - 0.00 in0.0 mm 0.05 in1.3 mm
06:50 PM 39.0°F3.9°C 38.0°F3.3°C 96% 1.2 mph WSW1.9 kmh WSW 1.2 mph1.9 kmh 30.23 in1023.7 mb - 0.00 in0.0 mm 0.05 in1.3 mm
07:00 PM 38.7°F3.7°C 37.7°F3.2°C 96% Calm Calm -- 30.23 in1023.7 mb - 0.00 in0.0 mm 0.05 in1.3 mm
07:10 PM 38.4°F3.6°C 37.4°F3.0°C 96% Calm Calm -- 30.23 in1023.7 mb - 0.00 in0.0 mm 0.05 in1.3 mm
07:20 PM 38.3°F3.5°C 37.3°F2.9°C 96% Calm Calm -- 30.23 in1023.7 mb - 0.00 in0.0 mm 0.05 in1.3 mm
07:30 PM 38.0°F3.3°C 37.0°F2.8°C 96% Calm Calm -- 30.23 in1023.7 mb - 0.00 in0.0 mm 0.05 in1.3 mm
07:40 PM 37.9°F3.3°C 36.5°F2.5°C 95% 2.3 mph WSW3.7 kmh WSW 2.3 mph3.7 kmh 30.23 in1023.7 mb - 0.00 in0.0 mm 0.05 in1.3 mm
07:50 PM 37.9°F3.3°C 36.5°F2.5°C 95% 2.3 mph WSW3.7 kmh WSW 2.3 mph3.7 kmh 30.23 in1023.7 mb - 0.00 in0.0 mm 0.05 in1.3 mm
08:00 PM 37.4°F3.0°C 36.1°F2.3°C 95% Calm Calm -- 30.22 in1023.4 mb - 0.00 in0.0 mm 0.05 in1.3 mm
08:10 PM 37.3°F2.9°C 36.0°F2.2°C 95% Calm Calm -- 30.23 in1023.7 mb - 0.00 in0.0 mm 0.05 in1.3 mm
08:20 PM 37.2°F2.9°C 35.9°F2.2°C 95% Calm Calm -- 30.22 in1023.4 mb - 0.00 in0.0 mm 0.05 in1.3 mm
08:30 PM 36.7°F2.6°C 35.4°F1.9°C 95% Calm Calm -- 30.22 in1023.4 mb - 0.00 in0.0 mm 0.05 in1.3 mm
08:40 PM 36.1°F2.3°C 34.9°F1.6°C 95% Calm Calm -- 30.22 in1023.4 mb - 0.00 in0.0 mm 0.05 in1.3 mm
08:50 PM 35.3°F1.8°C 34.1°F1.2°C 95% Calm Calm -- 30.22 in1023.4 mb - 0.00 in0.0 mm 0.05 in1.3 mm
09:00 PM 34.7°F1.5°C 33.5°F0.8°C 95% Calm Calm -- 30.22 in1023.4 mb - 0.00 in0.0 mm 0.05 in1.3 mm
09:10 PM 34.7°F1.5°C 33.4°F0.8°C 95% Calm Calm -- 30.22 in1023.4 mb - 0.00 in0.0 mm 0.05 in1.3 mm
09:20 PM 35.0°F1.7°C 33.7°F0.9°C 95% Calm Calm -- 30.22 in1023.4 mb - 0.00 in0.0 mm 0.05 in1.3 mm
09:30 PM 34.6°F1.4°C 33.4°F0.8°C 95% Calm Calm -- 30.22 in1023.4 mb - 0.00 in0.0 mm 0.05 in1.3 mm
09:40 PM 34.5°F1.4°C 33.2°F0.7°C 95% Calm Calm -- 30.21 in1023.0 mb - 0.00 in0.0 mm 0.05 in1.3 mm
09:50 PM 34.4°F1.3°C 33.1°F0.6°C 95% Calm Calm -- 30.22 in1023.4 mb - 0.00 in0.0 mm 0.05 in1.3 mm
10:00 PM 34.3°F1.3°C 33.0°F0.6°C 95% Calm Calm -- 30.21 in1023.0 mb - 0.00 in0.0 mm 0.05 in1.3 mm
10:10 PM 34.3°F1.3°C 33.0°F0.6°C 95% Calm Calm -- 30.22 in1023.4 mb - 0.00 in0.0 mm 0.05 in1.3 mm
10:20 PM 34.0°F1.1°C 32.7°F0.4°C 95% Calm Calm -- 30.21 in1023.0 mb - 0.00 in0.0 mm 0.05 in1.3 mm
10:30 PM 33.7°F0.9°C 32.5°F0.3°C 95% Calm Calm -- 30.21 in1023.0 mb - 0.00 in0.0 mm 0.05 in1.3 mm
10:40 PM 33.1°F0.6°C 31.9°F-0.1°C 95% Calm Calm -- 30.21 in1023.0 mb - 0.00 in0.0 mm 0.05 in1.3 mm
10:50 PM 33.1°F0.6°C 31.8°F-0.1°C 95% Calm Calm -- 30.21 in1023.0 mb - 0.00 in0.0 mm 0.05 in1.3 mm
11:00 PM 32.7°F0.4°C 31.5°F-0.3°C 95% Calm Calm -- 30.21 in1023.0 mb - 0.00 in0.0 mm 0.05 in1.3 mm
11:10 PM 32.4°F0.2°C 31.1°F-0.5°C 95% Calm Calm -- 30.22 in1023.4 mb - 0.00 in0.0 mm 0.05 in1.3 mm
11:20 PM 32.2°F0.1°C 30.9°F-0.6°C 95% Calm Calm -- 30.22 in1023.4 mb - 0.00 in0.0 mm 0.05 in1.3 mm
11:30 PM 31.8°F-0.1°C 30.6°F-0.8°C 95% Calm Calm -- 30.22 in1023.4 mb - 0.00 in0.0 mm 0.05 in1.3 mm
11:40 PM 31.8°F-0.1°C 30.5°F-0.8°C 95% Calm Calm -- 30.21 in1023.0 mb - 0.00 in0.0 mm 0.05 in1.3 mm
11:50 PM 31.6°F-0.2°C 30.4°F-0.9°C 95% Calm Calm -- 30.21 in1023.0 mb - 0.00 in0.0 mm 0.05 in1.3 mm